Indian Springs, Ohio
Current Conditions -  °F | °C
As of 6:53 PM on Friday 19 Dec 2014 (Local Time) from KHAO Reporting Station
Overcast Overcast  
Wind Chill: 31°   Ceiling: 2600
Heat Index: 31°   Visibility: 10mi
Dew Point: 23°   Wind: 0mph
Humidity: 72%   Direction: NA
Pressure: 30.31"   Gusts: NA
Location:  39.3284°N, 84.5465°W
Report Text: KHAO 192353Z AUTO 00000KT 10SM OVC026 M01/M05 A3031 RMK AO2 SLP273 T10061050 10000 21006 50013
Loading
Personal Weather Stations






























Interactive Weather Map New forecast layout! Learn more

10-Day Weather Forecast

Advertisements
Track Severe Weather on mobile